sensor_id;sensor_type;location;lat;lon;timestamp;P1;durP1;ratioP1;P2;durP2;ratioP2
20093;SDS011;10206;48.012;10.030;2022-08-05T00:01:02;4.65;;;4.22;;
20093;SDS011;10206;48.012;10.030;2022-08-05T00:03:39;6.35;;;4.63;;
20093;SDS011;10206;48.012;10.030;2022-08-05T00:06:05;5.30;;;4.25;;
20093;SDS011;10206;48.012;10.030;2022-08-05T00:08:32;5.25;;;4.75;;
20093;SDS011;10206;48.012;10.030;2022-08-05T00:10:59;4.57;;;4.20;;
20093;SDS011;10206;48.012;10.030;2022-08-05T00:13:30;5.20;;;4.53;;
20093;SDS011;10206;48.012;10.030;2022-08-05T00:15:57;5.85;;;4.28;;
20093;SDS011;10206;48.012;10.030;2022-08-05T00:18:23;5.72;;;4.63;;
20093;SDS011;10206;48.012;10.030;2022-08-05T00:20:49;6.13;;;4.60;;
20093;SDS011;10206;48.012;10.030;2022-08-05T00:23:16;6.50;;;4.50;;
20093;SDS011;10206;48.012;10.030;2022-08-05T00:25:42;4.25;;;3.95;;
20093;SDS011;10206;48.012;10.030;2022-08-05T00:28:09;4.65;;;4.25;;
20093;SDS011;10206;48.012;10.030;2022-08-05T00:30:35;4.68;;;4.10;;
20093;SDS011;10206;48.012;10.030;2022-08-05T00:33:01;4.68;;;4.28;;
20093;SDS011;10206;48.012;10.030;2022-08-05T00:35:27;5.72;;;4.13;;
20093;SDS011;10206;48.012;10.030;2022-08-05T00:37:53;4.90;;;4.38;;
20093;SDS011;10206;48.012;10.030;2022-08-05T00:40:20;4.93;;;4.53;;
20093;SDS011;10206;48.012;10.030;2022-08-05T00:42:48;5.03;;;4.57;;
20093;SDS011;10206;48.012;10.030;2022-08-05T00:45:14;5.43;;;4.30;;
20093;SDS011;10206;48.012;10.030;2022-08-05T00:47:40;4.97;;;4.57;;
20093;SDS011;10206;48.012;10.030;2022-08-05T00:50:07;6.38;;;4.78;;
20093;SDS011;10206;48.012;10.030;2022-08-05T00:52:33;5.40;;;4.90;;
20093;SDS011;10206;48.012;10.030;2022-08-05T00:54:59;4.65;;;4.18;;
20093;SDS011;10206;48.012;10.030;2022-08-05T00:57:26;4.90;;;4.35;;
20093;SDS011;10206;48.012;10.030;2022-08-05T00:59:52;5.95;;;4.20;;
20093;SDS011;10206;48.012;10.030;2022-08-05T01:02:18;5.00;;;4.40;;
20093;SDS011;10206;48.012;10.030;2022-08-05T01:04:44;4.70;;;4.20;;
20093;SDS011;10206;48.012;10.030;2022-08-05T01:07:10;5.75;;;4.45;;
20093;SDS011;10206;48.012;10.030;2022-08-05T01:09:36;4.53;;;4.13;;
20093;SDS011;10206;48.012;10.030;2022-08-05T01:12:05;6.63;;;4.10;;
20093;SDS011;10206;48.012;10.030;2022-08-05T01:14:40;4.10;;;3.78;;
20093;SDS011;10206;48.012;10.030;2022-08-05T01:17:15;4.45;;;4.13;;
20093;SDS011;10206;48.012;10.030;2022-08-05T01:20:05;4.15;;;3.85;;
20093;SDS011;10206;48.012;10.030;2022-08-05T01:25:59;4.93;;;4.43;;
20093;SDS011;10206;48.012;10.030;2022-08-05T01:36:53;5.32;;;4.25;;
20093;SDS011;10206;48.012;10.030;2022-08-05T01:39:41;5.50;;;4.40;;
20093;SDS011;10206;48.012;10.030;2022-08-05T01:42:09;4.93;;;4.20;;
20093;SDS011;10206;48.012;10.030;2022-08-05T01:44:40;4.63;;;4.15;;
20093;SDS011;10206;48.012;10.030;2022-08-05T01:47:06;4.93;;;4.40;;
20093;SDS011;10206;48.012;10.030;2022-08-05T01:49:35;4.68;;;4.25;;
20093;SDS011;10206;48.012;10.030;2022-08-05T01:52:03;5.90;;;4.22;;
20093;SDS011;10206;48.012;10.030;2022-08-05T01:54:36;6.50;;;4.20;;
20093;SDS011;10206;48.012;10.030;2022-08-05T01:57:10;9.02;;;4.80;;
20093;SDS011;10206;48.012;10.030;2022-08-05T01:59:38;4.90;;;4.50;;
20093;SDS011;10206;48.012;10.030;2022-08-05T02:02:06;4.70;;;4.30;;
20093;SDS011;10206;48.012;10.030;2022-08-05T02:04:35;5.10;;;4.70;;
20093;SDS011;10206;48.012;10.030;2022-08-05T02:07:04;4.97;;;4.47;;
20093;SDS011;10206;48.012;10.030;2022-08-05T02:09:30;5.35;;;4.68;;
20093;SDS011;10206;48.012;10.030;2022-08-05T02:16:54;5.30;;;4.70;;
20093;SDS011;10206;48.012;10.030;2022-08-05T02:22:08;5.55;;;4.95;;
20093;SDS011;10206;48.012;10.030;2022-08-05T02:24:38;4.25;;;3.95;;
20093;SDS011;10206;48.012;10.030;2022-08-05T02:27:08;6.93;;;4.82;;
20093;SDS011;10206;48.012;10.030;2022-08-05T02:29:36;4.80;;;4.30;;
20093;SDS011;10206;48.012;10.030;2022-08-05T02:32:07;6.60;;;4.57;;
20093;SDS011;10206;48.012;10.030;2022-08-05T02:34:35;4.75;;;4.35;;
20093;SDS011;10206;48.012;10.030;2022-08-05T02:37:03;9.48;;;4.35;;
20093;SDS011;10206;48.012;10.030;2022-08-05T02:39:34;4.80;;;4.40;;
20093;SDS011;10206;48.012;10.030;2022-08-05T02:42:03;6.28;;;4.50;;
20093;SDS011;10206;48.012;10.030;2022-08-05T02:44:31;4.65;;;4.25;;
20093;SDS011;10206;48.012;10.030;2022-08-05T02:47:01;7.38;;;4.70;;
20093;SDS011;10206;48.012;10.030;2022-08-05T02:49:34;5.47;;;4.60;;
20093;SDS011;10206;48.012;10.030;2022-08-05T02:52:03;4.80;;;4.40;;
20093;SDS011;10206;48.012;10.030;2022-08-05T02:54:31;4.82;;;4.40;;
20093;SDS011;10206;48.012;10.030;2022-08-05T02:57:00;7.20;;;4.28;;
20093;SDS011;10206;48.012;10.030;2022-08-05T02:59:27;5.13;;;4.68;;
20093;SDS011;10206;48.012;10.030;2022-08-05T03:01:54;4.60;;;4.20;;
20093;SDS011;10206;48.012;10.030;2022-08-05T03:04:24;4.63;;;4.22;;
20093;SDS011;10206;48.012;10.030;2022-08-05T03:06:51;5.28;;;4.72;;
20093;SDS011;10206;48.012;10.030;2022-08-05T03:09:17;4.45;;;4.05;;
20093;SDS011;10206;48.012;10.030;2022-08-05T03:11:44;4.70;;;4.18;;
20093;SDS011;10206;48.012;10.030;2022-08-05T03:14:10;6.20;;;4.20;;
20093;SDS011;10206;48.012;10.030;2022-08-05T03:16:36;5.38;;;4.70;;
20093;SDS011;10206;48.012;10.030;2022-08-05T03:19:03;4.88;;;4.38;;
20093;SDS011;10206;48.012;10.030;2022-08-05T03:21:29;4.85;;;4.35;;
20093;SDS011;10206;48.012;10.030;2022-08-05T03:23:55;4.18;;;3.78;;
20093;SDS011;10206;48.012;10.030;2022-08-05T03:26:23;4.03;;;3.72;;
20093;SDS011;10206;48.012;10.030;2022-08-05T03:28:49;5.18;;;4.68;;
20093;SDS011;10206;48.012;10.030;2022-08-05T03:31:15;4.32;;;3.92;;
20093;SDS011;10206;48.012;10.030;2022-08-05T03:33:41;4.53;;;4.15;;
20093;SDS011;10206;48.012;10.030;2022-08-05T03:36:08;7.60;;;4.38;;
20093;SDS011;10206;48.012;10.030;2022-08-05T03:38:38;4.75;;;4.28;;
20093;SDS011;10206;48.012;10.030;2022-08-05T03:41:06;4.65;;;4.07;;
20093;SDS011;10206;48.012;10.030;2022-08-05T03:43:32;4.70;;;3.60;;
20093;SDS011;10206;48.012;10.030;2022-08-05T03:46:00;4.45;;;4.00;;
20093;SDS011;10206;48.012;10.030;2022-08-05T03:48:27;5.10;;;4.00;;
20093;SDS011;10206;48.012;10.030;2022-08-05T03:51:00;5.00;;;3.88;;
20093;SDS011;10206;48.012;10.030;2022-08-05T03:53:48;3.92;;;3.63;;
20093;SDS011;10206;48.012;10.030;2022-08-05T03:56:25;4.38;;;3.80;;
20093;SDS011;10206;48.012;10.030;2022-08-05T03:59:12;5.78;;;3.60;;
20093;SDS011;10206;48.012;10.030;2022-08-05T04:01:48;5.85;;;3.50;;
20093;SDS011;10206;48.012;10.030;2022-08-05T04:04:16;4.10;;;3.70;;
20093;SDS011;10206;48.012;10.030;2022-08-05T04:06:44;5.50;;;3.72;;
20093;SDS011;10206;48.012;10.030;2022-08-05T04:09:11;3.83;;;3.45;;
20093;SDS011;10206;48.012;10.030;2022-08-05T04:11:37;4.30;;;3.90;;
20093;SDS011;10206;48.012;10.030;2022-08-05T04:14:04;6.65;;;3.75;;
20093;SDS011;10206;48.012;10.030;2022-08-05T04:16:31;4.30;;;3.55;;
20093;SDS011;10206;48.012;10.030;2022-08-05T04:18:59;4.68;;;3.88;;
20093;SDS011;10206;48.012;10.030;2022-08-05T04:21:26;4.18;;;3.75;;
20093;SDS011;10206;48.012;10.030;2022-08-05T04:23:52;5.97;;;3.85;;
20093;SDS011;10206;48.012;10.030;2022-08-05T04:26:19;3.92;;;3.63;;
20093;SDS011;10206;48.012;10.030;2022-08-05T04:28:45;4.03;;;3.63;;
20093;SDS011;10206;48.012;10.030;2022-08-05T04:31:11;3.95;;;3.65;;
20093;SDS011;10206;48.012;10.030;2022-08-05T04:33:37;4.25;;;3.85;;
20093;SDS011;10206;48.012;10.030;2022-08-05T04:36:03;4.07;;;3.63;;
20093;SDS011;10206;48.012;10.030;2022-08-05T04:38:30;3.85;;;3.45;;
20093;SDS011;10206;48.012;10.030;2022-08-05T04:40:56;3.72;;;3.40;;
20093;SDS011;10206;48.012;10.030;2022-08-05T04:43:22;4.32;;;3.90;;
20093;SDS011;10206;48.012;10.030;2022-08-05T04:45:48;4.93;;;3.90;;
20093;SDS011;10206;48.012;10.030;2022-08-05T04:48:14;3.80;;;3.50;;
20093;SDS011;10206;48.012;10.030;2022-08-05T04:50:42;4.72;;;3.65;;
20093;SDS011;10206;48.012;10.030;2022-08-05T04:53:09;5.60;;;4.00;;
20093;SDS011;10206;48.012;10.030;2022-08-05T04:55:37;6.70;;;3.97;;
20093;SDS011;10206;48.012;10.030;2022-08-05T04:58:05;4.45;;;3.53;;
20093;SDS011;10206;48.012;10.030;2022-08-05T05:00:32;5.18;;;3.65;;
20093;SDS011;10206;48.012;10.030;2022-08-05T05:02:59;5.95;;;4.00;;
20093;SDS011;10206;48.012;10.030;2022-08-05T05:05:27;4.53;;;4.10;;
20093;SDS011;10206;48.012;10.030;2022-08-05T05:07:54;6.40;;;3.60;;
20093;SDS011;10206;48.012;10.030;2022-08-05T05:10:24;4.93;;;4.20;;
20093;SDS011;10206;48.012;10.030;2022-08-05T05:12:51;4.93;;;3.72;;
20093;SDS011;10206;48.012;10.030;2022-08-05T05:15:17;6.50;;;3.58;;
20093;SDS011;10206;48.012;10.030;2022-08-05T05:17:43;4.50;;;4.10;;
20093;SDS011;10206;48.012;10.030;2022-08-05T05:20:11;4.55;;;3.72;;
20093;SDS011;10206;48.012;10.030;2022-08-05T05:22:37;5.15;;;4.63;;
20093;SDS011;10206;48.012;10.030;2022-08-05T05:25:04;4.63;;;3.88;;
20093;SDS011;10206;48.012;10.030;2022-08-05T05:27:32;4.75;;;3.80;;
20093;SDS011;10206;48.012;10.030;2022-08-05T05:29:59;4.25;;;3.90;;
20093;SDS011;10206;48.012;10.030;2022-08-05T05:32:25;4.43;;;4.00;;
20093;SDS011;10206;48.012;10.030;2022-08-05T05:34:51;4.93;;;4.00;;
20093;SDS011;10206;48.012;10.030;2022-08-05T05:37:17;5.25;;;4.22;;
20093;SDS011;10206;48.012;10.030;2022-08-05T05:39:44;4.68;;;4.25;;
20093;SDS011;10206;48.012;10.030;2022-08-05T05:42:10;4.32;;;3.92;;
20093;SDS011;10206;48.012;10.030;2022-08-05T05:44:36;4.30;;;4.00;;
20093;SDS011;10206;48.012;10.030;2022-08-05T05:47:02;5.97;;;4.10;;
20093;SDS011;10206;48.012;10.030;2022-08-05T05:49:29;4.40;;;4.00;;
20093;SDS011;10206;48.012;10.030;2022-08-05T05:51:55;7.45;;;4.22;;
20093;SDS011;10206;48.012;10.030;2022-08-05T05:54:21;8.73;;;4.40;;
20093;SDS011;10206;48.012;10.030;2022-08-05T05:56:47;4.22;;;3.88;;
20093;SDS011;10206;48.012;10.030;2022-08-05T05:59:13;5.20;;;3.80;;
20093;SDS011;10206;48.012;10.030;2022-08-05T06:01:40;5.65;;;4.63;;
20093;SDS011;10206;48.012;10.030;2022-08-05T06:04:07;5.60;;;4.43;;
20093;SDS011;10206;48.012;10.030;2022-08-05T06:06:35;4.55;;;4.15;;
20093;SDS011;10206;48.012;10.030;2022-08-05T06:09:04;5.05;;;4.30;;
20093;SDS011;10206;48.012;10.030;2022-08-05T06:11:31;4.18;;;3.80;;
20093;SDS011;10206;48.012;10.030;2022-08-05T06:13:57;4.68;;;4.22;;
20093;SDS011;10206;48.012;10.030;2022-08-05T06:16:24;5.00;;;4.05;;
20093;SDS011;10206;48.012;10.030;2022-08-05T06:18:51;4.20;;;3.78;;
20093;SDS011;10206;48.012;10.030;2022-08-05T06:21:17;4.50;;;3.97;;
20093;SDS011;10206;48.012;10.030;2022-08-05T06:23:43;4.63;;;3.85;;
20093;SDS011;10206;48.012;10.030;2022-08-05T06:26:10;6.50;;;4.15;;
20093;SDS011;10206;48.012;10.030;2022-08-05T06:28:36;5.95;;;4.07;;
20093;SDS011;10206;48.012;10.030;2022-08-05T06:31:03;4.88;;;3.88;;
20093;SDS011;10206;48.012;10.030;2022-08-05T06:33:29;5.78;;;4.30;;
20093;SDS011;10206;48.012;10.030;2022-08-05T06:35:55;5.15;;;3.83;;
20093;SDS011;10206;48.012;10.030;2022-08-05T06:38:21;5.63;;;4.20;;
20093;SDS011;10206;48.012;10.030;2022-08-05T06:40:47;4.53;;;3.45;;
20093;SDS011;10206;48.012;10.030;2022-08-05T06:43:13;6.18;;;3.70;;
20093;SDS011;10206;48.012;10.030;2022-08-05T06:45:39;4.22;;;3.78;;
20093;SDS011;10206;48.012;10.030;2022-08-05T06:48:05;5.05;;;3.65;;
20093;SDS011;10206;48.012;10.030;2022-08-05T06:50:32;4.53;;;3.85;;
20093;SDS011;10206;48.012;10.030;2022-08-05T06:52:58;6.40;;;4.10;;
20093;SDS011;10206;48.012;10.030;2022-08-05T06:55:24;9.10;;;3.90;;
20093;SDS011;10206;48.012;10.030;2022-08-05T06:57:50;5.10;;;3.40;;
20093;SDS011;10206;48.012;10.030;2022-08-05T07:00:16;7.30;;;3.70;;
20093;SDS011;10206;48.012;10.030;2022-08-05T07:02:43;6.28;;;3.47;;
20093;SDS011;10206;48.012;10.030;2022-08-05T07:05:10;8.73;;;3.70;;
20093;SDS011;10206;48.012;10.030;2022-08-05T07:07:37;9.52;;;3.80;;
20093;SDS011;10206;48.012;10.030;2022-08-05T07:10:05;6.40;;;4.07;;
20093;SDS011;10206;48.012;10.030;2022-08-05T07:12:32;10.02;;;3.63;;
20093;SDS011;10206;48.012;10.030;2022-08-05T07:15:17;7.18;;;3.55;;
20093;SDS011;10206;48.012;10.030;2022-08-05T07:18:02;7.35;;;3.47;;
20093;SDS011;10206;48.012;10.030;2022-08-05T07:20:29;7.15;;;3.88;;
20093;SDS011;10206;48.012;10.030;2022-08-05T07:22:55;6.63;;;3.75;;
20093;SDS011;10206;48.012;10.030;2022-08-05T07:25:21;4.43;;;3.80;;
20093;SDS011;10206;48.012;10.030;2022-08-05T07:27:48;5.68;;;3.90;;
20093;SDS011;10206;48.012;10.030;2022-08-05T07:30:15;5.25;;;3.97;;
20093;SDS011;10206;48.012;10.030;2022-08-05T07:32:41;7.13;;;3.50;;
20093;SDS011;10206;48.012;10.030;2022-08-05T07:35:08;4.00;;;3.70;;
20093;SDS011;10206;48.012;10.030;2022-08-05T07:37:35;6.95;;;4.20;;
20093;SDS011;10206;48.012;10.030;2022-08-05T07:40:02;11.43;;;4.43;;
20093;SDS011;10206;48.012;10.030;2022-08-05T07:42:28;5.25;;;3.60;;
20093;SDS011;10206;48.012;10.030;2022-08-05T07:44:55;6.20;;;4.18;;
20093;SDS011;10206;48.012;10.030;2022-08-05T07:47:21;6.10;;;3.95;;
20093;SDS011;10206;48.012;10.030;2022-08-05T07:49:47;4.88;;;3.85;;
20093;SDS011;10206;48.012;10.030;2022-08-05T07:52:16;10.90;;;3.72;;
20093;SDS011;10206;48.012;10.030;2022-08-05T07:54:43;11.25;;;3.72;;
20093;SDS011;10206;48.012;10.030;2022-08-05T07:57:09;7.50;;;4.40;;
20093;SDS011;10206;48.012;10.030;2022-08-05T07:59:36;6.65;;;3.65;;
20093;SDS011;10206;48.012;10.030;2022-08-05T08:02:02;5.50;;;3.53;;
20093;SDS011;10206;48.012;10.030;2022-08-05T08:04:29;6.68;;;3.70;;
20093;SDS011;10206;48.012;10.030;2022-08-05T08:06:55;6.13;;;4.07;;
20093;SDS011;10206;48.012;10.030;2022-08-05T08:09:24;5.43;;;3.88;;
20093;SDS011;10206;48.012;10.030;2022-08-05T08:11:51;10.63;;;4.72;;
20093;SDS011;10206;48.012;10.030;2022-08-05T08:14:17;6.20;;;4.28;;
20093;SDS011;10206;48.012;10.030;2022-08-05T08:16:44;6.07;;;3.80;;
20093;SDS011;10206;48.012;10.030;2022-08-05T08:19:10;8.27;;;3.67;;
20093;SDS011;10206;48.012;10.030;2022-08-05T08:21:36;9.43;;;4.22;;
20093;SDS011;10206;48.012;10.030;2022-08-05T08:24:02;6.03;;;4.10;;
20093;SDS011;10206;48.012;10.030;2022-08-05T08:26:29;8.63;;;4.40;;
20093;SDS011;10206;48.012;10.030;2022-08-05T08:28:59;8.60;;;4.53;;
20093;SDS011;10206;48.012;10.030;2022-08-05T08:31:25;7.38;;;4.15;;
20093;SDS011;10206;48.012;10.030;2022-08-05T08:33:51;11.10;;;3.88;;
20093;SDS011;10206;48.012;10.030;2022-08-05T08:36:17;7.80;;;3.67;;
20093;SDS011;10206;48.012;10.030;2022-08-05T08:38:44;5.72;;;3.88;;
20093;SDS011;10206;48.012;10.030;2022-08-05T08:41:10;11.93;;;3.83;;
20093;SDS011;10206;48.012;10.030;2022-08-05T08:43:38;4.47;;;3.38;;
20093;SDS011;10206;48.012;10.030;2022-08-05T08:46:07;7.88;;;3.42;;
20093;SDS011;10206;48.012;10.030;2022-08-05T08:48:33;5.38;;;3.53;;
20093;SDS011;10206;48.012;10.030;2022-08-05T08:51:00;6.95;;;3.67;;
20093;SDS011;10206;48.012;10.030;2022-08-05T08:53:29;6.65;;;3.15;;
20093;SDS011;10206;48.012;10.030;2022-08-05T08:56:01;4.32;;;3.22;;
20093;SDS011;10206;48.012;10.030;2022-08-05T08:58:29;6.95;;;3.03;;
20093;SDS011;10206;48.012;10.030;2022-08-05T09:00:56;10.88;;;3.13;;
20093;SDS011;10206;48.012;10.030;2022-08-05T09:03:23;6.35;;;3.63;;
20093;SDS011;10206;48.012;10.030;2022-08-05T09:05:49;6.13;;;3.08;;
20093;SDS011;10206;48.012;10.030;2022-08-05T09:08:15;8.05;;;3.78;;
20093;SDS011;10206;48.012;10.030;2022-08-05T09:10:43;6.40;;;4.00;;
20093;SDS011;10206;48.012;10.030;2022-08-05T09:13:13;8.02;;;2.92;;
20093;SDS011;10206;48.012;10.030;2022-08-05T09:15:39;3.92;;;2.90;;
20093;SDS011;10206;48.012;10.030;2022-08-05T09:18:06;5.75;;;2.72;;
20093;SDS011;10206;48.012;10.030;2022-08-05T09:20:33;2.45;;;2.25;;
20093;SDS011;10206;48.012;10.030;2022-08-05T09:25:32;8.45;;;4.20;;
20093;SDS011;10206;48.012;10.030;2022-08-05T09:28:09;4.18;;;2.90;;
20093;SDS011;10206;48.012;10.030;2022-08-05T09:30:41;5.07;;;2.58;;
20093;SDS011;10206;48.012;10.030;2022-08-05T09:33:08;5.22;;;3.30;;
20093;SDS011;10206;48.012;10.030;2022-08-05T09:35:34;5.25;;;2.90;;
20093;SDS011;10206;48.012;10.030;2022-08-05T09:38:01;6.78;;;2.90;;
20093;SDS011;10206;48.012;10.030;2022-08-05T09:42:57;2.65;;;2.42;;
20093;SDS011;10206;48.012;10.030;2022-08-05T09:45:35;7.93;;;2.67;;
20093;SDS011;10206;48.012;10.030;2022-08-05T09:48:22;3.90;;;2.80;;
20093;SDS011;10206;48.012;10.030;2022-08-05T09:50:53;3.25;;;2.70;;
20093;SDS011;10206;48.012;10.030;2022-08-05T09:53:23;7.15;;;4.88;;
20093;SDS011;10206;48.012;10.030;2022-08-05T09:55:51;6.05;;;3.80;;
20093;SDS011;10206;48.012;10.030;2022-08-05T09:58:19;2.83;;;2.60;;
20093;SDS011;10206;48.012;10.030;2022-08-05T10:00:53;5.05;;;3.03;;
20093;SDS011;10206;48.012;10.030;2022-08-05T10:03:24;8.52;;;4.82;;
20093;SDS011;10206;48.012;10.030;2022-08-05T10:06:07;4.00;;;3.45;;
20093;SDS011;10206;48.012;10.030;2022-08-05T10:08:35;5.63;;;3.38;;
20093;SDS011;10206;48.012;10.030;2022-08-05T10:11:11;5.18;;;2.92;;
20093;SDS011;10206;48.012;10.030;2022-08-05T10:13:39;6.40;;;5.00;;
20093;SDS011;10206;48.012;10.030;2022-08-05T10:16:26;4.32;;;2.45;;
20093;SDS011;10206;48.012;10.030;2022-08-05T10:18:53;2.45;;;2.25;;
20093;SDS011;10206;48.012;10.030;2022-08-05T10:21:19;5.13;;;2.95;;
20093;SDS011;10206;48.012;10.030;2022-08-05T10:23:45;4.38;;;2.95;;
20093;SDS011;10206;48.012;10.030;2022-08-05T10:26:12;4.80;;;2.60;;
20093;SDS011;10206;48.012;10.030;2022-08-05T10:28:39;4.30;;;2.50;;
20093;SDS011;10206;48.012;10.030;2022-08-05T10:31:07;6.13;;;2.58;;
20093;SDS011;10206;48.012;10.030;2022-08-05T10:33:36;5.25;;;2.55;;
20093;SDS011;10206;48.012;10.030;2022-08-05T10:36:03;6.93;;;2.72;;
20093;SDS011;10206;48.012;10.030;2022-08-05T10:38:30;3.03;;;2.60;;
20093;SDS011;10206;48.012;10.030;2022-08-05T10:41:21;4.10;;;2.17;;
20093;SDS011;10206;48.012;10.030;2022-08-05T10:44:01;4.75;;;2.45;;
20093;SDS011;10206;48.012;10.030;2022-08-05T10:49:34;3.45;;;2.38;;
20093;SDS011;10206;48.012;10.030;2022-08-05T10:55:16;4.88;;;2.60;;
20093;SDS011;10206;48.012;10.030;2022-08-05T10:57:43;3.03;;;2.58;;
20093;SDS011;10206;48.012;10.030;2022-08-05T11:00:11;4.35;;;2.65;;
20093;SDS011;10206;48.012;10.030;2022-08-05T11:02:49;3.28;;;2.70;;
20093;SDS011;10206;48.012;10.030;2022-08-05T11:05:31;5.53;;;2.67;;
20093;SDS011;10206;48.012;10.030;2022-08-05T11:07:58;2.90;;;2.70;;
20093;SDS011;10206;48.012;10.030;2022-08-05T11:10:30;4.40;;;2.60;;
20093;SDS011;10206;48.012;10.030;2022-08-05T11:12:57;3.08;;;2.78;;
20093;SDS011;10206;48.012;10.030;2022-08-05T11:15:25;2.80;;;2.60;;
20093;SDS011;10206;48.012;10.030;2022-08-05T11:18:40;3.00;;;2.40;;
20093;SDS011;10206;48.012;10.030;2022-08-05T11:20:54;4.43;;;2.90;;
20093;SDS011;10206;48.012;10.030;2022-08-05T11:28:45;3.53;;;3.00;;
20093;SDS011;10206;48.012;10.030;2022-08-05T11:36:16;6.72;;;2.42;;
20093;SDS011;10206;48.012;10.030;2022-08-05T11:46:24;3.75;;;2.78;;
20093;SDS011;10206;48.012;10.030;2022-08-05T11:48:51;3.67;;;2.30;;
20093;SDS011;10206;48.012;10.030;2022-08-05T11:51:17;3.13;;;2.35;;
20093;SDS011;10206;48.012;10.030;2022-08-05T11:53:44;4.15;;;2.45;;
20093;SDS011;10206;48.012;10.030;2022-08-05T11:56:11;3.47;;;2.42;;
20093;SDS011;10206;48.012;10.030;2022-08-05T11:58:38;4.55;;;2.60;;
20093;SDS011;10206;48.012;10.030;2022-08-05T12:01:10;4.88;;;2.67;;
20093;SDS011;10206;48.012;10.030;2022-08-05T12:06:12;4.82;;;2.78;;
20093;SDS011;10206;48.012;10.030;2022-08-05T12:08:44;3.00;;;2.80;;
20093;SDS011;10206;48.012;10.030;2022-08-05T12:11:21;4.47;;;2.75;;
20093;SDS011;10206;48.012;10.030;2022-08-05T12:13:59;4.03;;;2.80;;
20093;SDS011;10206;48.012;10.030;2022-08-05T12:16:27;5.18;;;2.97;;
20093;SDS011;10206;48.012;10.030;2022-08-05T12:19:00;2.92;;;2.63;;
20093;SDS011;10206;48.012;10.030;2022-08-05T12:21:29;5.07;;;3.22;;
20093;SDS011;10206;48.012;10.030;2022-08-05T12:24:03;4.07;;;3.03;;
20093;SDS011;10206;48.012;10.030;2022-08-05T12:26:37;3.63;;;2.97;;
20093;SDS011;10206;48.012;10.030;2022-08-05T12:29:05;4.85;;;2.65;;
20093;SDS011;10206;48.012;10.030;2022-08-05T12:31:33;6.50;;;3.10;;
20093;SDS011;10206;48.012;10.030;2022-08-05T12:34:04;3.10;;;2.80;;
20093;SDS011;10206;48.012;10.030;2022-08-05T12:36:33;3.20;;;2.90;;
20093;SDS011;10206;48.012;10.030;2022-08-05T12:39:01;4.63;;;2.88;;
20093;SDS011;10206;48.012;10.030;2022-08-05T12:41:32;2.90;;;2.58;;
20093;SDS011;10206;48.012;10.030;2022-08-05T12:44:02;3.50;;;3.20;;
20093;SDS011;10206;48.012;10.030;2022-08-05T12:46:31;7.70;;;3.08;;
20093;SDS011;10206;48.012;10.030;2022-08-05T12:51:25;3.20;;;2.90;;
20093;SDS011;10206;48.012;10.030;2022-08-05T12:54:00;4.40;;;3.05;;
20093;SDS011;10206;48.012;10.030;2022-08-05T12:56:27;3.42;;;3.03;;
20093;SDS011;10206;48.012;10.030;2022-08-05T12:59:09;4.40;;;3.47;;
20093;SDS011;10206;48.012;10.030;2022-08-05T13:01:40;3.28;;;2.63;;
20093;SDS011;10206;48.012;10.030;2022-08-05T13:04:08;4.03;;;3.00;;
20093;SDS011;10206;48.012;10.030;2022-08-05T13:06:39;4.47;;;2.97;;
20093;SDS011;10206;48.012;10.030;2022-08-05T13:09:07;3.63;;;3.28;;
20093;SDS011;10206;48.012;10.030;2022-08-05T13:11:37;4.18;;;3.25;;
20093;SDS011;10206;48.012;10.030;2022-08-05T13:14:14;4.13;;;2.85;;
20093;SDS011;10206;48.012;10.030;2022-08-05T13:16:47;3.45;;;3.00;;
20093;SDS011;10206;48.012;10.030;2022-08-05T13:19:13;3.55;;;3.10;;
20093;SDS011;10206;48.012;10.030;2022-08-05T13:21:40;3.72;;;3.13;;
20093;SDS011;10206;48.012;10.030;2022-08-05T13:24:06;4.53;;;3.25;;
20093;SDS011;10206;48.012;10.030;2022-08-05T13:26:32;4.25;;;3.00;;
20093;SDS011;10206;48.012;10.030;2022-08-05T13:28:59;3.40;;;3.00;;
20093;SDS011;10206;48.012;10.030;2022-08-05T13:31:25;5.45;;;3.05;;
20093;SDS011;10206;48.012;10.030;2022-08-05T13:33:51;6.60;;;3.20;;
20093;SDS011;10206;48.012;10.030;2022-08-05T13:36:19;3.55;;;3.25;;
20093;SDS011;10206;48.012;10.030;2022-08-05T13:38:45;5.90;;;3.47;;
20093;SDS011;10206;48.012;10.030;2022-08-05T13:41:11;4.32;;;3.45;;
20093;SDS011;10206;48.012;10.030;2022-08-05T13:43:39;7.35;;;3.50;;
20093;SDS011;10206;48.012;10.030;2022-08-05T13:46:07;4.10;;;3.30;;
20093;SDS011;10206;48.012;10.030;2022-08-05T13:48:35;7.10;;;3.13;;
20093;SDS011;10206;48.012;10.030;2022-08-05T13:51:08;3.58;;;3.28;;
20093;SDS011;10206;48.012;10.030;2022-08-05T13:53:40;7.18;;;3.20;;
20093;SDS011;10206;48.012;10.030;2022-08-05T13:56:07;5.10;;;3.15;;
20093;SDS011;10206;48.012;10.030;2022-08-05T13:58:34;3.50;;;3.20;;
20093;SDS011;10206;48.012;10.030;2022-08-05T14:01:00;4.50;;;3.42;;
20093;SDS011;10206;48.012;10.030;2022-08-05T14:03:26;3.65;;;3.10;;
20093;SDS011;10206;48.012;10.030;2022-08-05T14:05:53;4.97;;;3.22;;
20093;SDS011;10206;48.012;10.030;2022-08-05T14:08:19;4.20;;;3.75;;
20093;SDS011;10206;48.012;10.030;2022-08-05T14:10:45;4.97;;;3.40;;
20093;SDS011;10206;48.012;10.030;2022-08-05T14:13:11;7.78;;;4.10;;
20093;SDS011;10206;48.012;10.030;2022-08-05T14:15:38;5.28;;;3.67;;
20093;SDS011;10206;48.012;10.030;2022-08-05T14:18:04;4.18;;;3.63;;
20093;SDS011;10206;48.012;10.030;2022-08-05T14:20:30;5.55;;;3.58;;
20093;SDS011;10206;48.012;10.030;2022-08-05T14:22:57;5.35;;;3.80;;
20093;SDS011;10206;48.012;10.030;2022-08-05T14:25:24;4.38;;;3.47;;
20093;SDS011;10206;48.012;10.030;2022-08-05T14:27:50;3.65;;;3.30;;
20093;SDS011;10206;48.012;10.030;2022-08-05T14:30:17;4.65;;;3.55;;
20093;SDS011;10206;48.012;10.030;2022-08-05T14:32:44;4.95;;;3.53;;
20093;SDS011;10206;48.012;10.030;2022-08-05T14:35:10;3.80;;;3.50;;
20093;SDS011;10206;48.012;10.030;2022-08-05T14:37:36;3.83;;;3.47;;
20093;SDS011;10206;48.012;10.030;2022-08-05T14:40:03;4.13;;;3.67;;
20093;SDS011;10206;48.012;10.030;2022-08-05T14:42:29;5.57;;;3.50;;
20093;SDS011;10206;48.012;10.030;2022-08-05T14:44:56;4.57;;;3.38;;
20093;SDS011;10206;48.012;10.030;2022-08-05T14:47:22;7.25;;;3.53;;
20093;SDS011;10206;48.012;10.030;2022-08-05T14:49:48;3.85;;;3.50;;
20093;SDS011;10206;48.012;10.030;2022-08-05T14:52:15;5.35;;;3.65;;
20093;SDS011;10206;48.012;10.030;2022-08-05T14:54:41;3.92;;;3.55;;
20093;SDS011;10206;48.012;10.030;2022-08-05T14:57:07;4.03;;;3.63;;
20093;SDS011;10206;48.012;10.030;2022-08-05T14:59:33;4.68;;;4.10;;
20093;SDS011;10206;48.012;10.030;2022-08-05T15:01:59;4.07;;;3.60;;
20093;SDS011;10206;48.012;10.030;2022-08-05T15:04:25;5.68;;;3.55;;
20093;SDS011;10206;48.012;10.030;2022-08-05T15:06:52;4.65;;;3.67;;
20093;SDS011;10206;48.012;10.030;2022-08-05T15:09:19;4.07;;;3.65;;
20093;SDS011;10206;48.012;10.030;2022-08-05T15:11:45;4.82;;;3.67;;
20093;SDS011;10206;48.012;10.030;2022-08-05T15:14:11;4.40;;;3.63;;
20093;SDS011;10206;48.012;10.030;2022-08-05T15:16:38;4.13;;;3.67;;
20093;SDS011;10206;48.012;10.030;2022-08-05T15:19:04;5.90;;;3.83;;
20093;SDS011;10206;48.012;10.030;2022-08-05T15:21:31;6.55;;;4.00;;
20093;SDS011;10206;48.012;10.030;2022-08-05T15:23:57;5.57;;;3.78;;
20093;SDS011;10206;48.012;10.030;2022-08-05T15:26:23;5.38;;;4.05;;
20093;SDS011;10206;48.012;10.030;2022-08-05T15:28:49;4.97;;;3.83;;
20093;SDS011;10206;48.012;10.030;2022-08-05T15:31:15;4.47;;;3.60;;
20093;SDS011;10206;48.012;10.030;2022-08-05T15:33:41;4.82;;;3.25;;